createdAt,value
2019-04-06T07:10:08.185Z,298.13
2019-04-06T07:11:08.146Z,315.00
2019-04-06T07:12:08.139Z,326.25
2019-04-06T07:13:08.098Z,343.13
2019-04-06T07:14:08.264Z,354.38
2019-04-06T07:15:08.098Z,365.63
2019-04-06T07:16:08.032Z,371.25
2019-04-06T07:17:08.028Z,376.88
2019-04-06T07:18:07.991Z,393.75
2019-04-06T07:19:07.967Z,405.00
2019-04-06T07:20:08.170Z,416.25
2019-04-06T07:21:08.024Z,421.88
2019-04-06T07:22:07.930Z,427.50
2019-04-06T07:23:07.889Z,427.50
2019-04-06T07:24:07.870Z,421.88
2019-04-06T07:25:07.847Z,421.88
2019-04-06T07:26:07.943Z,421.88
2019-04-06T07:27:07.826Z,421.88
2019-04-06T07:28:07.866Z,427.50
2019-04-06T07:29:07.989Z,421.88
2019-04-06T07:30:07.811Z,399.38
2019-04-06T07:31:07.736Z,388.13
2019-04-06T07:32:07.716Z,376.88
2019-04-06T07:33:07.712Z,365.63
2019-04-06T07:34:07.672Z,354.38
2019-04-06T07:35:07.661Z,348.75
2019-04-06T07:36:07.649Z,354.38
2019-04-06T07:37:07.727Z,354.38
2019-04-06T07:38:07.611Z,365.63
2019-04-06T07:39:07.604Z,376.88
2019-04-06T07:40:07.638Z,382.50
2019-04-06T07:41:07.595Z,393.75
2019-04-06T07:42:07.524Z,410.63
2019-04-06T07:43:07.557Z,433.13
2019-04-06T07:44:07.686Z,455.63
2019-04-06T07:45:07.862Z,466.88
2019-04-06T07:46:07.446Z,472.50
2019-04-06T07:47:07.426Z,483.75
2019-04-06T07:48:07.622Z,489.38
2019-04-06T07:49:09.164Z,489.38
2019-04-06T07:50:07.381Z,489.38
2019-04-06T07:51:07.359Z,489.38
2019-04-06T07:52:07.353Z,511.88
2019-04-06T07:53:07.332Z,517.50
2019-04-06T07:54:07.302Z,517.50
2019-04-06T07:55:07.310Z,517.50
2019-04-06T07:56:07.267Z,523.13
2019-04-06T07:57:07.247Z,534.38
2019-04-06T08:05:23.011Z,500.63
2019-04-06T08:06:22.976Z,450.00
2019-04-06T08:07:22.959Z,466.88
2019-04-06T08:08:22.955Z,489.38
2019-04-06T08:09:23.148Z,450.00
2019-04-06T08:10:22.907Z,472.50
2019-04-06T08:12:54.928Z,489.38
2019-04-06T08:13:55.076Z,511.88
2019-04-06T08:14:57.348Z,511.88
2019-04-06T08:19:48.604Z,686.25
2019-04-06T08:20:48.572Z,601.88
2019-04-06T08:21:48.551Z,534.38
2019-04-06T08:22:48.530Z,500.63
2019-04-06T08:23:48.611Z,478.13
2019-04-06T08:24:48.496Z,478.13
2019-04-06T08:32:19.817Z,528.75
2019-04-06T08:33:19.614Z,506.25
2019-04-06T08:34:19.571Z,511.88
2019-04-06T08:35:25.173Z,528.75
2019-04-06T08:36:19.532Z,528.75
2019-04-06T08:37:19.513Z,517.50
2019-04-06T08:38:19.511Z,618.75
2019-04-06T08:39:19.477Z,652.50
2019-04-06T08:40:19.460Z,675.00
2019-04-06T08:41:19.472Z,658.13
2019-04-06T08:42:19.424Z,590.63
2019-04-06T08:43:19.422Z,573.75
2019-04-06T08:44:19.391Z,669.38
2019-04-06T08:45:19.458Z,686.25
2019-04-06T08:46:19.518Z,680.63
2019-04-06T08:47:19.339Z,686.25
2019-04-06T08:48:19.331Z,759.38
2019-04-06T08:49:19.305Z,658.13
2019-04-06T08:50:19.284Z,641.25
2019-04-06T08:51:19.275Z,663.75
2019-04-06T08:52:19.288Z,703.13
2019-04-06T08:53:19.236Z,736.88
2019-04-06T08:54:19.218Z,720.00
2019-04-06T08:55:19.202Z,691.88
2019-04-06T08:56:19.185Z,601.88
2019-04-06T08:57:19.366Z,551.25
2019-04-06T08:58:19.174Z,618.75
2019-04-06T08:59:19.134Z,675.00
2019-04-06T09:00:19.119Z,646.88
2019-04-06T09:05:49.094Z,646.88
2019-04-06T09:06:49.069Z,675.00
2019-04-06T09:07:49.064Z,663.75
2019-04-06T09:08:49.027Z,669.38
2019-04-06T09:09:49.010Z,562.50
2019-04-06T09:10:49.142Z,601.88
2019-04-06T09:11:51.940Z,669.38
2019-04-06T09:12:48.957Z,736.88
2019-04-06T09:13:48.955Z,686.25
2019-04-06T09:14:48.931Z,596.25
2019-04-06T09:15:48.908Z,630.00
2019-04-06T09:16:48.893Z,596.25
2019-04-06T09:17:48.877Z,652.50
2019-04-06T09:18:49.517Z,675.00
2019-04-06T09:19:49.085Z,652.50
2019-04-06T09:20:48.826Z,601.88
2019-04-06T09:21:48.809Z,601.88
2019-04-06T09:22:48.810Z,613.13
2019-04-06T09:23:48.793Z,607.50
2019-04-06T09:24:48.761Z,680.63
2019-04-06T09:25:48.745Z,691.88
2019-04-06T09:26:48.888Z,759.38
2019-04-06T09:27:48.745Z,770.63
2019-04-06T09:28:48.708Z,714.38
2019-04-06T09:29:48.681Z,708.75
2019-04-06T09:30:48.664Z,708.75
2019-04-06T09:31:48.650Z,691.88
2019-04-06T09:32:48.632Z,714.38
2019-04-06T09:33:48.699Z,714.38
2019-04-06T09:34:48.601Z,663.75
2019-04-06T09:35:48.587Z,725.63
2019-04-06T09:36:48.587Z,765.00
2019-04-06T09:37:48.671Z,742.50
2019-04-06T09:38:48.551Z,720.00
2019-04-06T09:39:48.520Z,703.13
2019-04-06T09:40:48.565Z,635.63
2019-04-06T09:41:48.488Z,630.00
2019-04-06T09:42:48.725Z,641.25
2019-04-06T09:43:48.471Z,613.13
2019-04-06T09:44:48.443Z,669.38
2019-04-06T09:45:48.428Z,759.38
2019-04-06T09:46:48.412Z,787.50
2019-04-06T09:47:48.395Z,720.00
2019-04-06T09:48:48.394Z,736.88
2019-04-06T09:49:48.362Z,720.00
2019-04-06T09:50:48.348Z,686.25
2019-04-06T09:51:48.331Z,691.88
2019-04-06T09:52:48.317Z,635.63
2019-04-06T09:53:48.342Z,675.00
2019-04-06T09:54:48.285Z,753.75
2019-04-06T09:55:48.442Z,703.13
2019-04-06T09:56:48.251Z,646.88
2019-04-06T09:57:48.239Z,652.50
2019-04-06T09:58:48.221Z,658.13
2019-04-06T09:59:48.580Z,669.38
2019-04-06T10:00:48.191Z,652.50
2019-04-06T10:01:48.423Z,646.88
2019-04-06T10:02:48.159Z,630.00
2019-04-06T10:03:48.146Z,635.63
2019-04-06T10:04:48.143Z,646.88
2019-04-06T10:09:22.980Z,601.88
2019-04-06T10:10:22.948Z,635.63
2019-04-06T10:11:22.933Z,624.38
2019-04-06T10:12:22.919Z,601.88
2019-04-06T10:13:22.899Z,585.00
2019-04-06T10:14:22.981Z,618.75
2019-04-06T10:15:22.868Z,703.13
2019-04-06T10:16:22.851Z,703.13
2019-04-06T10:17:22.835Z,669.38
2019-04-06T10:18:22.819Z,630.00
2019-04-06T10:19:22.803Z,618.75
2019-04-06T10:20:23.084Z,630.00
2019-04-06T10:21:22.890Z,630.00
2019-04-06T10:22:22.957Z,618.75
2019-04-06T10:23:22.740Z,607.50
2019-04-06T10:24:23.024Z,601.88
2019-04-06T10:25:22.724Z,596.25
2019-04-06T10:28:59.941Z,646.88
2019-04-06T10:29:59.940Z,624.38
2019-04-06T10:30:59.902Z,596.25
2019-04-06T10:31:59.919Z,596.25
2019-04-06T10:32:59.882Z,596.25
2019-04-06T10:33:59.856Z,596.25
2019-04-06T10:34:59.840Z,607.50
2019-04-06T10:35:59.837Z,613.13
2019-04-06T10:36:59.844Z,607.50
2019-04-06T10:37:59.984Z,601.88
2019-04-06T10:38:59.776Z,613.13
2019-04-06T10:39:59.759Z,613.13
2019-04-06T10:40:59.759Z,613.13
2019-04-06T10:44:42.391Z,630.00
2019-04-06T10:45:42.386Z,635.63
2019-04-06T10:46:42.352Z,641.25
2019-04-06T10:47:42.555Z,641.25
2019-04-06T10:48:42.589Z,624.38
2019-04-06T10:49:42.520Z,641.25
2019-04-06T10:50:42.293Z,652.50
2019-04-06T10:51:42.289Z,646.88
2019-04-06T10:52:42.259Z,658.13
2019-04-06T10:53:42.246Z,658.13
2019-04-06T10:54:42.288Z,652.50
2019-04-06T10:55:42.519Z,652.50
2019-04-06T10:56:42.209Z,652.50
2019-04-06T10:57:42.183Z,652.50
2019-04-06T10:58:42.484Z,652.50
2019-04-06T10:59:42.153Z,652.50
2019-04-06T11:00:42.135Z,646.88
2019-04-06T11:01:42.175Z,652.50
2019-04-06T11:02:42.406Z,652.50
2019-04-06T11:03:42.116Z,658.13
2019-04-06T11:07:59.511Z,663.75
2019-04-06T11:08:59.411Z,669.38
2019-04-06T11:09:59.394Z,675.00
2019-04-06T11:10:59.381Z,680.63
2019-04-06T11:11:59.465Z,697.50
2019-04-06T11:12:59.355Z,697.50
2019-04-06T11:13:59.499Z,708.75
2019-04-06T11:14:59.318Z,714.38
2019-04-06T11:15:59.303Z,720.00
2019-04-06T11:16:59.512Z,736.88
2019-04-06T11:17:59.275Z,725.63
2019-04-06T11:18:59.260Z,736.88
2019-04-06T11:19:59.425Z,742.50
2019-04-06T11:20:59.290Z,753.75
2019-04-06T11:21:59.231Z,759.38
2019-04-06T11:22:59.196Z,759.38
2019-04-06T11:23:59.185Z,759.38
2019-04-06T11:24:59.167Z,765.00
2019-04-06T11:25:59.157Z,759.38
2019-04-06T11:26:59.140Z,759.38
2019-04-06T11:27:59.138Z,770.63
2019-04-06T11:28:59.116Z,765.00
2019-04-06T11:30:11.220Z,765.00
2019-04-06T11:30:59.103Z,776.25
2019-04-06T11:31:59.066Z,793.13
2019-04-06T11:32:59.067Z,810.00
2019-04-06T11:33:59.038Z,826.88
2019-04-06T11:34:59.022Z,832.50
2019-04-06T11:35:59.005Z,821.25
2019-04-06T11:36:59.122Z,832.50
2019-04-06T11:37:58.992Z,849.38
2019-04-06T11:38:59.249Z,855.00
2019-04-06T11:39:58.951Z,866.25
2019-04-06T11:40:58.934Z,877.50
2019-04-06T11:41:58.923Z,877.50
2019-04-06T11:42:58.922Z,888.75
2019-04-06T11:43:58.892Z,900.00
2019-04-06T11:44:58.878Z,900.00
2019-04-06T11:45:58.881Z,905.63
2019-04-06T11:46:58.854Z,922.50
2019-04-06T11:47:58.915Z,911.25
2019-04-06T11:48:58.823Z,939.38
2019-04-06T11:49:58.817Z,973.13
2019-04-06T11:50:58.804Z,984.38
2019-04-06T11:51:58.784Z,1006.88
2019-04-06T11:52:58.821Z,1057.50
2019-04-06T11:53:58.758Z,1125.00
2019-04-06T11:54:58.811Z,1265.63
2019-04-06T11:55:58.730Z,1485.00
2019-04-06T11:56:58.958Z,1760.63
2019-04-06T11:57:58.706Z,2008.13
2019-04-06T11:58:59.007Z,2407.50
2019-04-06T11:59:58.680Z,2705.63
2019-04-06T12:01:01.091Z,2891.25
2019-04-06T12:01:58.877Z,3110.63
2019-04-06T12:02:58.640Z,3105.00
2019-04-06T12:03:58.648Z,3138.75
2019-04-06T12:04:58.628Z,3099.38
2019-04-06T12:05:58.853Z,3031.88
2019-04-06T12:07:00.810Z,3245.63
2019-04-06T12:07:58.630Z,3189.38
2019-04-06T12:08:58.573Z,2913.75
2019-04-06T12:09:58.552Z,2660.63
2019-04-06T12:10:58.537Z,2964.38
2019-04-06T12:11:58.524Z,3217.50
2019-04-06T12:12:58.511Z,3465.00
2019-04-06T12:13:58.513Z,3375.00
2019-04-06T12:14:58.489Z,3251.25
2019-04-06T12:15:58.474Z,3459.38
2019-04-06T12:16:58.736Z,3341.25
2019-04-06T12:17:58.734Z,3318.75
2019-04-06T12:18:58.452Z,3453.75
2019-04-06T12:19:58.425Z,3723.75
2019-04-06T12:20:58.415Z,3459.38
2019-04-06T12:21:58.406Z,3453.75
2019-04-06T12:22:58.697Z,3431.25
2019-04-06T12:23:58.394Z,3701.25
2019-04-06T12:24:58.373Z,3622.50
2019-04-06T12:25:58.356Z,3813.75
2019-04-06T12:26:58.645Z,3425.63
2019-04-06T12:27:58.335Z,3645.00
2019-04-06T12:28:58.337Z,3645.00
2019-04-06T12:29:58.311Z,3470.63
2019-04-06T12:30:58.296Z,3549.38
2019-04-06T12:31:58.289Z,3864.38
2019-04-06T12:32:58.275Z,3993.75
2019-04-06T12:33:58.279Z,3431.25
2019-04-06T12:34:58.255Z,3841.88
2019-04-06T12:35:58.246Z,3465.00
2019-04-06T12:36:58.246Z,3656.25
2019-04-06T12:37:58.260Z,3723.75
2019-04-06T12:38:58.364Z,4072.50
2019-04-06T12:39:58.200Z,1507.50
2019-04-06T12:40:58.326Z,3121.88
2019-04-06T12:41:58.182Z,3993.75
2019-04-06T12:42:58.492Z,3673.13
2019-04-06T12:43:58.160Z,2143.13
2019-04-06T12:44:58.168Z,3217.50
2019-04-06T12:45:58.189Z,1546.88
2019-04-06T12:46:58.133Z,1265.63
2019-04-06T12:47:58.122Z,1918.13
2019-04-06T12:48:58.109Z,3200.63
2019-04-06T12:49:58.283Z,2497.50
2019-04-06T12:50:58.090Z,2188.13
2019-04-06T12:51:58.555Z,3864.38
2019-04-06T12:52:58.071Z,1524.38
2019-04-06T12:53:58.061Z,2823.75
2019-04-06T12:54:58.065Z,4021.88
2019-04-06T12:55:58.041Z,4016.25
2019-04-06T12:56:58.035Z,3521.25
2019-04-06T12:57:58.022Z,4123.13
2019-04-06T12:58:58.011Z,2435.63
2019-04-06T12:59:58.332Z,1479.38
2019-04-06T13:00:57.991Z,2469.38
2019-04-06T13:01:58.007Z,1608.75
2019-04-06T13:02:57.973Z,3656.25
2019-04-06T13:03:57.961Z,3105.00
2019-04-06T13:04:57.970Z,3425.63
2019-04-06T13:05:57.942Z,1985.63
2019-04-06T13:06:57.969Z,1271.25
2019-04-06T13:07:57.920Z,1231.88
2019-04-06T13:08:58.328Z,1215.00
2019-04-06T13:09:58.025Z,1265.63
2019-04-06T13:10:57.913Z,1310.63
2019-04-06T13:11:57.883Z,1305.00
2019-04-06T13:12:57.873Z,1310.63
2019-04-06T13:13:57.860Z,1361.25
2019-04-06T13:14:57.917Z,1479.38
2019-04-06T13:15:58.032Z,1327.50
2019-04-06T13:16:57.829Z,1248.75
2019-04-06T13:17:57.819Z,1170.00
2019-04-06T13:18:57.809Z,1119.38
2019-04-06T13:19:57.797Z,1063.13
2019-04-06T13:20:57.799Z,1068.75
2019-04-06T13:21:57.777Z,2008.13
2019-04-06T13:22:57.765Z,1389.38
2019-04-06T13:23:57.751Z,1479.38
2019-04-06T13:24:57.741Z,2913.75
2019-04-06T13:25:57.746Z,1423.13
2019-04-06T13:26:57.718Z,1260.00
2019-04-06T13:27:57.711Z,1248.75
2019-04-06T13:28:57.894Z,1192.50
2019-04-06T13:29:57.704Z,1108.13
2019-04-06T13:31:03.031Z,1068.75
2019-04-06T13:31:57.661Z,1147.50
2019-04-06T13:32:58.549Z,1288.13
2019-04-06T13:33:57.641Z,3538.13
2019-04-06T13:34:57.631Z,1400.63
2019-04-06T13:35:57.649Z,1215.00
2019-04-06T13:36:57.604Z,1125.00
2019-04-06T13:37:57.592Z,1209.38
2019-04-06T13:38:57.578Z,1327.50
2019-04-06T13:39:57.605Z,1389.38
2019-04-06T13:40:57.573Z,2351.25
2019-04-06T13:41:57.786Z,2120.63
2019-04-06T13:42:57.533Z,2806.88
2019-04-06T13:43:57.758Z,1985.63
2019-04-06T13:44:57.509Z,2778.75
2019-04-06T13:45:57.499Z,2041.88
2019-04-06T13:46:57.499Z,1681.88
2019-04-06T13:47:57.781Z,1524.38
2019-04-06T13:48:57.465Z,1811.25
2019-04-06T13:49:57.690Z,3133.13
2019-04-06T13:50:57.442Z,3301.88
2019-04-06T13:51:57.442Z,3009.38
2019-04-06T13:52:57.420Z,2176.88
2019-04-06T13:53:57.422Z,1220.63
2019-04-06T13:54:57.611Z,1158.75
2019-04-06T13:55:57.384Z,2210.63
2019-04-06T13:56:57.387Z,1501.88
2019-04-06T13:57:57.367Z,1850.63
2019-04-06T13:58:57.405Z,2480.63
2019-04-06T13:59:57.347Z,2154.38
2019-04-06T14:00:57.381Z,3031.88
2019-04-06T14:01:57.337Z,3420.00
2019-04-06T14:02:57.315Z,3138.75
2019-04-06T14:03:57.299Z,1535.63
2019-04-06T14:04:57.293Z,2767.50
2019-04-06T14:05:57.324Z,1417.50
2019-04-06T14:06:57.287Z,1271.25
2019-04-06T14:07:57.258Z,945.00
2019-04-06T14:08:57.338Z,849.38
2019-04-06T14:09:57.238Z,748.13
2019-04-06T14:10:57.589Z,669.38
2019-04-06T14:11:57.371Z,618.75
2019-04-06T14:12:57.227Z,590.63
2019-04-06T14:13:57.464Z,585.00
2019-04-06T14:14:57.184Z,562.50
2019-04-06T14:15:57.172Z,568.13
2019-04-06T14:16:57.501Z,585.00
2019-04-06T14:17:57.168Z,596.25
2019-04-06T14:18:57.140Z,585.00
2019-04-06T14:19:57.126Z,568.13
2019-04-06T14:20:57.114Z,562.50
2019-04-06T14:21:57.103Z,573.75
2019-04-06T14:22:57.249Z,601.88
2019-04-06T14:23:57.377Z,635.63
2019-04-06T14:24:57.250Z,675.00
2019-04-06T14:25:57.319Z,703.13
2019-04-06T14:26:57.053Z,714.38
2019-04-06T14:27:57.043Z,686.25
2019-04-06T14:28:57.256Z,658.13
2019-04-06T14:29:57.007Z,658.13
2019-04-06T14:30:56.991Z,663.75
2019-04-06T14:31:56.983Z,691.88
2019-04-06T14:32:56.978Z,720.00
2019-04-06T14:33:56.954Z,708.75
2019-04-06T14:34:57.054Z,686.25
2019-04-06T14:35:56.926Z,658.13
2019-04-06T14:36:57.104Z,624.38
2019-04-06T14:37:57.211Z,590.63
2019-04-06T14:38:56.887Z,585.00
2019-04-06T14:39:56.874Z,585.00
2019-04-06T14:40:56.870Z,585.00
2019-04-06T14:41:56.846Z,562.50
2019-04-06T14:42:56.849Z,545.63
2019-04-06T14:43:56.820Z,545.63
2019-04-06T14:44:56.909Z,540.00
2019-04-06T14:45:56.795Z,540.00
2019-04-06T14:46:56.781Z,517.50
2019-04-06T14:47:56.900Z,517.50
2019-04-06T14:48:56.753Z,495.00
2019-04-06T14:49:56.740Z,506.25
2019-04-06T14:50:56.729Z,511.88
2019-04-06T14:51:56.714Z,478.13
2019-04-06T14:52:56.707Z,483.75
2019-04-06T14:53:57.043Z,478.13
2019-04-06T14:54:56.684Z,466.88
2019-04-06T14:55:57.110Z,461.25
2019-04-06T14:56:57.141Z,489.38
2019-04-06T14:57:56.817Z,562.50
2019-04-06T14:58:57.151Z,658.13
2019-04-06T14:59:56.627Z,725.63
2019-04-06T15:00:56.589Z,703.13
2019-04-06T15:01:59.258Z,646.88
2019-04-06T15:02:56.562Z,568.13
2019-04-06T15:03:56.562Z,540.00
2019-04-06T15:04:56.743Z,517.50
2019-04-06T15:05:56.523Z,517.50
2019-04-06T15:06:56.511Z,528.75
2019-04-06T15:07:57.063Z,523.13
2019-04-06T15:08:56.657Z,528.75
2019-04-06T15:09:56.468Z,528.75
2019-04-06T15:10:56.455Z,528.75
2019-04-06T15:11:56.963Z,534.38
2019-04-06T15:12:56.548Z,528.75
2019-04-06T15:13:56.435Z,545.63
2019-04-06T15:14:56.408Z,573.75
2019-04-06T15:15:56.569Z,556.88
2019-04-06T15:16:56.386Z,573.75
2019-04-06T15:17:56.743Z,618.75
2019-04-06T15:18:56.538Z,635.63
2019-04-06T15:19:56.330Z,658.13
2019-04-06T15:20:56.315Z,686.25
2019-04-06T15:21:56.300Z,765.00
2019-04-06T15:22:56.656Z,793.13
2019-04-06T15:23:56.289Z,821.25
2019-04-06T15:24:56.688Z,826.88
2019-04-06T15:25:56.248Z,911.25
2019-04-06T15:26:56.702Z,945.00
2019-04-06T15:27:56.265Z,888.75
2019-04-06T15:28:56.301Z,849.38
2019-04-06T15:29:56.315Z,821.25
2019-04-06T15:30:56.621Z,826.88
2019-04-06T15:31:56.467Z,815.63
2019-04-06T15:32:56.171Z,798.75
2019-04-06T15:33:56.256Z,804.38
2019-04-06T15:34:56.387Z,759.38
2019-04-06T15:35:56.295Z,736.88
2019-04-06T15:36:56.096Z,748.13
2019-04-06T15:37:56.086Z,742.50
2019-04-06T15:38:56.399Z,720.00
2019-04-06T15:39:56.072Z,703.13
2019-04-06T15:40:56.043Z,714.38
2019-04-06T15:41:57.402Z,697.50
2019-04-06T15:42:56.174Z,663.75
2019-04-06T15:43:56.002Z,646.88
2019-04-06T15:44:56.005Z,675.00
2019-04-06T15:45:55.981Z,708.75
2019-04-06T15:46:55.967Z,731.25
2019-04-06T15:47:56.112Z,736.88
2019-04-06T15:48:55.936Z,781.88
2019-04-06T15:49:55.987Z,770.63
2019-04-06T15:50:55.910Z,736.88
2019-04-06T15:51:56.203Z,765.00
2019-04-06T15:52:55.971Z,770.63
2019-04-06T15:53:55.920Z,776.25
2019-04-06T15:54:57.096Z,804.38
2019-04-06T15:55:56.930Z,776.25
2019-04-06T15:56:57.130Z,793.13
2019-04-06T15:57:57.425Z,832.50
2019-04-06T15:58:56.931Z,810.00
2019-04-06T15:59:58.428Z,798.75
2019-04-06T16:00:56.514Z,832.50
2019-04-06T16:02:01.501Z,877.50
2019-04-06T16:02:55.898Z,961.88
2019-04-06T16:03:55.740Z,973.13
2019-04-06T16:04:55.760Z,939.38
2019-04-06T16:05:57.272Z,939.38
2019-04-06T16:06:56.203Z,1068.75
2019-04-06T16:07:56.050Z,1080.00
2019-04-06T16:08:55.671Z,1113.75
2019-04-06T16:09:55.680Z,1108.13
2019-04-06T16:10:55.648Z,1136.25
2019-04-06T16:11:55.633Z,1040.63
2019-04-06T16:12:55.789Z,984.38
2019-04-06T16:13:55.678Z,978.75
2019-04-06T16:14:55.600Z,1046.25
2019-04-06T16:15:55.784Z,1012.50
2019-04-06T16:16:55.574Z,978.75
2019-04-06T16:17:55.563Z,939.38
2019-04-06T16:18:55.557Z,950.63
2019-04-06T16:19:55.660Z,967.50
2019-04-06T16:20:55.707Z,956.25
2019-04-06T16:21:55.517Z,967.50
2019-04-06T16:22:55.674Z,973.13
2019-04-06T16:24:02.346Z,990.00
2019-04-06T16:24:55.482Z,1012.50
2019-04-06T16:25:55.487Z,1035.00
2019-04-06T16:26:55.462Z,1051.88
2019-04-06T16:27:55.453Z,1051.88
2019-04-06T16:28:55.438Z,1012.50
2019-04-06T16:29:55.429Z,945.00
2019-04-06T16:30:55.440Z,871.88
2019-04-06T16:31:55.452Z,821.25
2019-04-06T16:32:55.772Z,793.13
2019-04-06T16:33:55.383Z,838.13
2019-04-06T16:34:55.374Z,945.00
2019-04-06T16:35:55.410Z,945.00
2019-04-06T16:36:55.608Z,894.38
2019-04-06T16:37:55.343Z,916.88
2019-04-06T16:38:55.330Z,950.63
2019-04-06T16:39:55.614Z,933.75
2019-04-06T16:40:55.325Z,922.50
2019-04-06T16:41:56.700Z,916.88
2019-04-06T16:42:55.289Z,871.88
2019-04-06T16:43:55.277Z,866.25
2019-04-06T16:44:55.266Z,877.50
2019-04-06T16:45:55.325Z,860.63
2019-04-06T16:46:55.261Z,855.00
2019-04-06T16:47:55.238Z,871.88
2019-04-06T16:48:55.626Z,855.00
2019-04-06T16:49:55.264Z,838.13
2019-04-06T16:50:55.389Z,821.25
2019-04-06T16:51:55.210Z,798.75
2019-04-06T16:52:55.294Z,736.88
2019-04-06T16:53:55.605Z,675.00
2019-04-06T16:54:55.263Z,585.00
2019-04-06T16:55:55.156Z,506.25
2019-04-06T16:56:55.221Z,478.13
2019-04-06T16:57:55.203Z,461.25
2019-04-06T16:58:55.333Z,450.00
2019-04-06T16:59:55.115Z,433.13
2019-04-06T17:00:55.121Z,427.50
2019-04-06T17:01:55.156Z,416.25
2019-04-06T17:02:55.140Z,405.00
2019-04-06T17:03:55.071Z,399.38
2019-04-06T17:04:55.061Z,393.75
2019-04-06T17:05:55.158Z,393.75
2019-04-06T17:06:55.039Z,388.13
2019-04-06T17:07:55.039Z,382.50
2019-04-06T17:08:55.282Z,371.25
2019-04-06T17:09:55.004Z,365.63
2019-04-06T17:10:54.991Z,354.38
2019-04-06T17:11:55.523Z,343.13
2019-04-06T17:13:04.037Z,331.88
2019-04-06T17:13:54.952Z,320.63
2019-04-06T17:14:55.039Z,309.38
2019-04-06T17:15:54.926Z,298.13
2019-04-06T17:16:54.952Z,292.50
2019-04-06T17:17:54.985Z,281.25
2019-04-06T17:18:54.890Z,275.63
2019-04-06T17:19:55.168Z,270.00
2019-04-06T17:20:54.886Z,258.75
2019-04-06T17:21:54.849Z,253.13
2019-04-06T17:22:55.011Z,241.88
2019-04-06T17:23:54.899Z,236.25
2019-04-06T17:24:54.809Z,230.63
2019-04-06T17:25:54.812Z,225.00
2019-04-06T17:26:54.834Z,219.38
2019-04-06T17:27:54.958Z,213.75
2019-04-06T17:28:54.758Z,208.13
2019-04-06T17:29:54.857Z,202.50
2019-04-06T17:30:54.730Z,191.25
2019-04-06T17:31:55.059Z,185.63
2019-04-06T17:32:54.713Z,180.00
2019-04-06T17:33:54.689Z,174.38
2019-04-06T17:34:56.666Z,168.75
2019-04-06T17:35:54.869Z,163.13
2019-04-06T17:36:54.993Z,151.88
2019-04-06T17:37:55.088Z,146.25
2019-04-06T17:38:54.701Z,140.63
2019-04-06T17:39:54.989Z,135.00
2019-04-06T17:40:54.706Z,129.38
2019-04-06T17:41:54.575Z,123.75
2019-04-06T17:42:54.882Z,118.13
2019-04-06T17:43:54.561Z,118.13
2019-04-06T17:44:54.533Z,112.50
2019-04-06T17:45:54.519Z,106.88
2019-04-06T17:46:54.636Z,101.25
2019-04-06T17:47:54.559Z,95.63
2019-04-06T17:48:54.536Z,90.00
2019-04-06T17:49:54.461Z,84.38
2019-04-06T17:50:54.549Z,84.38
2019-04-06T17:51:54.425Z,78.75
2019-04-06T17:52:54.735Z,73.13
2019-04-06T17:53:54.783Z,67.50
2019-04-06T17:54:54.708Z,61.88
2019-04-06T17:55:54.370Z,61.88
2019-04-06T17:56:54.715Z,56.25
2019-04-06T17:57:54.768Z,56.25
2019-04-06T17:58:54.336Z,50.63
2019-04-06T17:59:54.309Z,45.00
2019-04-06T18:00:54.296Z,45.00
2019-04-06T18:01:54.627Z,39.38
2019-04-06T18:02:54.266Z,39.38
2019-04-06T18:03:54.283Z,33.75
2019-04-06T18:04:54.307Z,33.75
2019-04-06T18:05:54.304Z,28.13
2019-04-06T18:06:54.258Z,28.13
2019-04-06T18:07:54.454Z,22.50
2019-04-06T18:08:54.165Z,22.50
2019-04-06T18:09:54.167Z,16.88
2019-04-06T18:10:54.661Z,16.88
2019-04-06T18:11:54.198Z,11.25
2019-04-06T18:12:54.221Z,11.25
2019-04-06T18:13:54.087Z,11.25
2019-04-06T18:14:54.151Z,11.25
2019-04-06T18:15:54.058Z,5.63
2019-04-06T18:16:54.044Z,5.63
2019-04-06T18:17:54.023Z,5.63
2019-04-06T18:18:54.009Z,5.63
2019-04-06T18:19:54.005Z,5.63
2019-04-06T18:20:53.973Z,5.63
2019-04-06T18:21:53.956Z,0.00
2019-04-06T18:22:53.945Z,0.00
2019-04-06T18:23:54.298Z,0.00
2019-04-06T18:24:53.927Z,0.00
2019-04-06T18:25:53.918Z,0.00
2019-04-06T18:26:53.880Z,0.00
2019-04-06T18:27:53.860Z,0.00
2019-04-06T18:28:53.846Z,0.00
2019-04-06T18:29:53.856Z,0.00
2019-04-06T18:30:53.809Z,0.00
2019-04-06T18:31:53.791Z,0.00
2019-04-06T18:33:00.748Z,0.00
2019-04-06T18:33:53.764Z,0.00
2019-04-06T18:34:53.769Z,0.00
2019-04-06T18:35:54.137Z,0.00
2019-04-06T18:36:53.720Z,0.00
2019-04-06T18:37:53.696Z,0.00
2019-04-06T18:38:53.739Z,0.00
2019-04-06T18:39:53.665Z,0.00
2019-04-06T18:40:53.725Z,0.00
2019-04-06T18:41:53.703Z,0.00
2019-04-06T18:42:54.436Z,0.00
2019-04-06T18:43:53.591Z,0.00
2019-04-06T18:44:53.573Z,0.00
2019-04-06T18:45:53.573Z,0.00
2019-04-06T18:46:53.961Z,0.00
2019-04-06T18:47:53.526Z,0.00
2019-04-06T18:48:54.056Z,0.00
2019-04-06T18:49:53.503Z,0.00
2019-04-06T18:50:53.487Z,0.00
2019-04-06T18:51:53.620Z,0.00
2019-04-06T18:52:53.438Z,0.00
2019-04-06T18:53:53.699Z,0.00
2019-04-06T18:54:53.405Z,0.00
2019-04-06T18:55:53.796Z,0.00
2019-04-06T18:56:53.371Z,0.00
2019-04-06T18:57:53.354Z,0.00
2019-04-06T18:58:53.563Z,0.00
2019-04-06T18:59:53.767Z,0.00
2019-04-06T19:00:53.314Z,0.00
2019-04-06T19:01:53.281Z,0.00
2019-04-06T19:02:53.693Z,0.00
2019-04-06T19:03:53.249Z,0.00
2019-04-06T19:04:53.227Z,0.00
2019-04-06T19:05:53.211Z,0.00
2019-04-06T19:06:53.433Z,0.00
2019-04-06T19:07:53.175Z,0.00
2019-04-06T19:08:53.503Z,0.00
2019-04-06T19:09:53.434Z,0.00
2019-04-06T19:10:55.318Z,0.00
2019-04-06T19:11:56.413Z,0.00
2019-04-06T19:12:53.100Z,0.00
2019-04-06T19:13:53.333Z,0.00
2019-04-06T19:14:53.215Z,0.00
2019-04-06T19:15:53.453Z,0.00
2019-04-06T19:16:53.033Z,0.00
2019-04-06T19:17:53.341Z,0.00
2019-04-06T19:18:52.984Z,0.00
2019-04-06T19:19:53.844Z,0.00
2019-04-06T19:20:52.946Z,0.00
2019-04-06T19:21:53.457Z,0.00
2019-04-06T19:22:52.911Z,0.00
2019-04-06T19:23:52.892Z,0.00
2019-04-06T19:24:52.879Z,0.00
2019-04-06T19:25:53.292Z,0.00
2019-04-06T19:26:52.858Z,0.00
2019-04-06T19:27:53.500Z,0.00
2019-04-06T19:28:52.800Z,0.00
2019-04-06T19:29:53.035Z,0.00
2019-04-06T19:30:52.774Z,0.00
2019-04-06T19:31:52.761Z,0.00
2019-04-06T19:32:52.733Z,0.00
2019-04-06T19:33:52.712Z,0.00
2019-04-06T19:34:52.868Z,0.00
2019-04-06T19:35:52.868Z,0.00
2019-04-06T19:36:53.106Z,0.00
2019-04-06T19:37:53.001Z,0.00
2019-04-06T19:38:53.020Z,0.00
2019-04-06T19:39:52.601Z,0.00
2019-04-06T19:40:52.970Z,0.00
2019-04-06T19:41:52.630Z,0.00
2019-04-06T19:42:52.550Z,0.00
2019-04-06T19:43:52.534Z,0.00
2019-04-06T19:44:52.556Z,0.00
2019-04-06T19:45:52.918Z,0.00
2019-04-06T19:46:52.958Z,0.00
2019-04-06T19:47:52.858Z,0.00
2019-04-06T19:48:52.868Z,0.00
2019-04-06T19:49:52.567Z,0.00
2019-04-06T19:50:52.402Z,0.00
2019-04-06T19:51:52.386Z,0.00
2019-04-06T19:52:52.427Z,0.00
2019-04-06T19:53:52.345Z,0.00
2019-04-06T19:54:52.326Z,0.00
2019-04-06T19:55:52.313Z,0.00
2019-04-06T19:56:52.287Z,0.00
2019-04-06T19:57:52.354Z,0.00
2019-04-06T19:58:52.418Z,0.00
2019-04-06T19:59:52.619Z,0.00
2019-04-06T20:00:52.217Z,0.00
2019-04-06T20:01:52.200Z,0.00
2019-04-06T20:02:52.199Z,0.00
2019-04-06T20:03:52.690Z,0.00
2019-04-06T20:04:52.140Z,0.00
2019-04-06T20:05:52.226Z,0.00
2019-04-06T20:06:52.153Z,0.00
2019-04-06T20:07:52.413Z,0.00
2019-04-06T20:08:52.082Z,0.00
2019-04-06T20:09:52.168Z,0.00
2019-04-06T20:10:52.031Z,0.00
2019-04-06T20:12:03.524Z,0.00
2019-04-06T20:12:52.040Z,0.00
2019-04-06T20:13:51.985Z,0.00
2019-04-06T20:14:51.953Z,0.00
2019-04-06T20:15:51.933Z,0.00
2019-04-06T20:16:51.915Z,0.00
2019-04-06T20:17:51.896Z,0.00